sensor_id;sensor_type;location;lat;lon;timestamp;temperature;humidity
35692;DHT22;26978;44.830;-0.674;2023-04-15T00:01:20;11.80;99.90
35692;DHT22;26978;44.830;-0.674;2023-04-15T00:03:49;11.70;99.90
35692;DHT22;26978;44.830;-0.674;2023-04-15T00:06:15;11.60;99.90
35692;DHT22;26978;44.830;-0.674;2023-04-15T00:08:40;11.60;99.90
35692;DHT22;26978;44.830;-0.674;2023-04-15T00:11:06;11.50;99.90
35692;DHT22;26978;44.830;-0.674;2023-04-15T00:13:32;11.50;99.90
35692;DHT22;26978;44.830;-0.674;2023-04-15T00:15:59;11.50;99.90
35692;DHT22;26978;44.830;-0.674;2023-04-15T00:18:25;11.50;99.90
35692;DHT22;26978;44.830;-0.674;2023-04-15T00:20:51;11.50;99.90
35692;DHT22;26978;44.830;-0.674;2023-04-15T00:23:17;11.40;99.90
35692;DHT22;26978;44.830;-0.674;2023-04-15T00:25:42;11.40;99.90
35692;DHT22;26978;44.830;-0.674;2023-04-15T00:28:09;11.40;99.90
35692;DHT22;26978;44.830;-0.674;2023-04-15T00:30:34;11.40;99.90
35692;DHT22;26978;44.830;-0.674;2023-04-15T00:33:00;11.50;99.90
35692;DHT22;26978;44.830;-0.674;2023-04-15T00:35:29;11.50;99.90
35692;DHT22;26978;44.830;-0.674;2023-04-15T00:37:57;11.50;99.90
35692;DHT22;26978;44.830;-0.674;2023-04-15T00:40:23;11.50;99.90
35692;DHT22;26978;44.830;-0.674;2023-04-15T00:42:49;11.50;99.90
35692;DHT22;26978;44.830;-0.674;2023-04-15T00:45:15;11.50;99.90
35692;DHT22;26978;44.830;-0.674;2023-04-15T00:47:42;11.50;99.90
35692;DHT22;26978;44.830;-0.674;2023-04-15T00:50:08;11.60;99.90
35692;DHT22;26978;44.830;-0.674;2023-04-15T00:52:34;11.50;99.90
35692;DHT22;26978;44.830;-0.674;2023-04-15T00:55:00;11.50;99.90
35692;DHT22;26978;44.830;-0.674;2023-04-15T00:57:27;11.50;99.90
35692;DHT22;26978;44.830;-0.674;2023-04-15T00:59:54;11.40;99.90
35692;DHT22;26978;44.830;-0.674;2023-04-15T01:02:21;11.40;99.90
35692;DHT22;26978;44.830;-0.674;2023-04-15T01:04:48;11.30;99.90
35692;DHT22;26978;44.830;-0.674;2023-04-15T01:07:13;11.30;99.90
35692;DHT22;26978;44.830;-0.674;2023-04-15T01:09:39;11.30;99.90
35692;DHT22;26978;44.830;-0.674;2023-04-15T01:12:06;11.30;99.90
35692;DHT22;26978;44.830;-0.674;2023-04-15T01:14:33;11.30;99.90
35692;DHT22;26978;44.830;-0.674;2023-04-15T01:16:58;11.30;99.90
35692;DHT22;26978;44.830;-0.674;2023-04-15T01:19:24;11.20;99.90
35692;DHT22;26978;44.830;-0.674;2023-04-15T01:21:50;11.20;99.90
35692;DHT22;26978;44.830;-0.674;2023-04-15T01:24:17;11.20;99.90
35692;DHT22;26978;44.830;-0.674;2023-04-15T01:26:44;11.10;99.90
35692;DHT22;26978;44.830;-0.674;2023-04-15T01:29:10;11.10;99.90
35692;DHT22;26978;44.830;-0.674;2023-04-15T01:31:36;11.10;99.90
35692;DHT22;26978;44.830;-0.674;2023-04-15T01:34:02;11.10;99.90
35692;DHT22;26978;44.830;-0.674;2023-04-15T01:36:27;11.10;99.90
35692;DHT22;26978;44.830;-0.674;2023-04-15T01:38:55;11.10;99.90
35692;DHT22;26978;44.830;-0.674;2023-04-15T01:41:25;11.10;99.90
35692;DHT22;26978;44.830;-0.674;2023-04-15T01:43:51;11.20;99.90
35692;DHT22;26978;44.830;-0.674;2023-04-15T01:46:17;11.20;99.90
35692;DHT22;26978;44.830;-0.674;2023-04-15T01:48:43;11.10;99.90
35692;DHT22;26978;44.830;-0.674;2023-04-15T01:51:08;11.10;99.90
35692;DHT22;26978;44.830;-0.674;2023-04-15T01:53:34;11.10;99.90
35692;DHT22;26978;44.830;-0.674;2023-04-15T01:56:00;11.10;99.90
35692;DHT22;26978;44.830;-0.674;2023-04-15T01:58:25;11.10;99.90
35692;DHT22;26978;44.830;-0.674;2023-04-15T02:00:51;11.10;99.90
35692;DHT22;26978;44.830;-0.674;2023-04-15T02:03:17;11.10;99.90
35692;DHT22;26978;44.830;-0.674;2023-04-15T02:05:43;11.10;99.90
35692;DHT22;26978;44.830;-0.674;2023-04-15T02:08:08;11.00;99.90
35692;DHT22;26978;44.830;-0.674;2023-04-15T02:10:34;11.00;99.90
35692;DHT22;26978;44.830;-0.674;2023-04-15T02:13:00;11.00;99.90
35692;DHT22;26978;44.830;-0.674;2023-04-15T02:15:26;11.00;99.90
35692;DHT22;26978;44.830;-0.674;2023-04-15T02:17:52;11.00;99.90
35692;DHT22;26978;44.830;-0.674;2023-04-15T02:20:20;11.00;99.90
35692;DHT22;26978;44.830;-0.674;2023-04-15T02:22:46;11.00;99.90
35692;DHT22;26978;44.830;-0.674;2023-04-15T02:25:13;11.00;99.90
35692;DHT22;26978;44.830;-0.674;2023-04-15T02:27:39;10.90;99.90
35692;DHT22;26978;44.830;-0.674;2023-04-15T02:30:05;10.90;99.90
35692;DHT22;26978;44.830;-0.674;2023-04-15T02:32:32;10.90;99.90
35692;DHT22;26978;44.830;-0.674;2023-04-15T02:35:04;10.90;99.90
35692;DHT22;26978;44.830;-0.674;2023-04-15T02:37:31;10.80;99.90
35692;DHT22;26978;44.830;-0.674;2023-04-15T02:39:57;10.80;99.90
35692;DHT22;26978;44.830;-0.674;2023-04-15T02:42:23;10.80;99.90
35692;DHT22;26978;44.830;-0.674;2023-04-15T02:44:51;10.60;99.90
35692;DHT22;26978;44.830;-0.674;2023-04-15T02:47:18;10.60;99.90
35692;DHT22;26978;44.830;-0.674;2023-04-15T02:49:44;10.60;99.90
35692;DHT22;26978;44.830;-0.674;2023-04-15T02:52:09;10.50;99.90
35692;DHT22;26978;44.830;-0.674;2023-04-15T02:54:35;10.40;99.90
35692;DHT22;26978;44.830;-0.674;2023-04-15T02:57:01;10.40;99.90
35692;DHT22;26978;44.830;-0.674;2023-04-15T02:59:27;10.40;99.90
35692;DHT22;26978;44.830;-0.674;2023-04-15T03:01:52;10.40;99.90
35692;DHT22;26978;44.830;-0.674;2023-04-15T03:04:19;10.40;99.90
35692;DHT22;26978;44.830;-0.674;2023-04-15T03:06:45;10.40;99.90
35692;DHT22;26978;44.830;-0.674;2023-04-15T03:09:11;10.40;99.90
35692;DHT22;26978;44.830;-0.674;2023-04-15T03:11:37;10.40;99.90
35692;DHT22;26978;44.830;-0.674;2023-04-15T03:14:05;10.40;99.90
35692;DHT22;26978;44.830;-0.674;2023-04-15T03:16:30;10.40;99.90
35692;DHT22;26978;44.830;-0.674;2023-04-15T03:18:56;10.40;99.90
35692;DHT22;26978;44.830;-0.674;2023-04-15T03:21:21;10.30;99.90
35692;DHT22;26978;44.830;-0.674;2023-04-15T03:23:48;10.40;99.90
35692;DHT22;26978;44.830;-0.674;2023-04-15T03:26:29;10.40;99.90
35692;DHT22;26978;44.830;-0.674;2023-04-15T03:28:55;10.40;99.90
35692;DHT22;26978;44.830;-0.674;2023-04-15T03:31:21;10.40;99.90
35692;DHT22;26978;44.830;-0.674;2023-04-15T03:33:46;10.30;99.90
35692;DHT22;26978;44.830;-0.674;2023-04-15T03:36:12;10.40;99.90
35692;DHT22;26978;44.830;-0.674;2023-04-15T03:38:38;10.40;99.90
35692;DHT22;26978;44.830;-0.674;2023-04-15T03:41:04;10.30;99.90
35692;DHT22;26978;44.830;-0.674;2023-04-15T03:43:30;10.30;99.90
35692;DHT22;26978;44.830;-0.674;2023-04-15T03:45:55;10.20;99.90
35692;DHT22;26978;44.830;-0.674;2023-04-15T03:48:21;10.10;99.90
35692;DHT22;26978;44.830;-0.674;2023-04-15T03:50:47;10.10;99.90
35692;DHT22;26978;44.830;-0.674;2023-04-15T03:53:14;10.00;99.90
35692;DHT22;26978;44.830;-0.674;2023-04-15T03:55:40;10.00;99.90
35692;DHT22;26978;44.830;-0.674;2023-04-15T03:58:05;10.00;99.90
35692;DHT22;26978;44.830;-0.674;2023-04-15T04:00:31;10.00;99.90
35692;DHT22;26978;44.830;-0.674;2023-04-15T04:02:56;10.00;99.90
35692;DHT22;26978;44.830;-0.674;2023-04-15T04:05:22;10.10;99.90
35692;DHT22;26978;44.830;-0.674;2023-04-15T04:07:48;10.00;99.90
35692;DHT22;26978;44.830;-0.674;2023-04-15T04:10:13;10.00;99.90
35692;DHT22;26978;44.830;-0.674;2023-04-15T04:12:39;9.90;99.90
35692;DHT22;26978;44.830;-0.674;2023-04-15T04:15:05;9.80;99.90
35692;DHT22;26978;44.830;-0.674;2023-04-15T04:17:31;9.70;99.90
35692;DHT22;26978;44.830;-0.674;2023-04-15T04:19:57;9.60;99.90
35692;DHT22;26978;44.830;-0.674;2023-04-15T04:22:23;9.50;99.90
35692;DHT22;26978;44.830;-0.674;2023-04-15T04:24:49;9.40;99.90
35692;DHT22;26978;44.830;-0.674;2023-04-15T04:27:15;9.40;99.90
35692;DHT22;26978;44.830;-0.674;2023-04-15T04:29:41;9.40;99.90
35692;DHT22;26978;44.830;-0.674;2023-04-15T04:32:06;9.30;99.90
35692;DHT22;26978;44.830;-0.674;2023-04-15T04:34:32;9.30;99.90
35692;DHT22;26978;44.830;-0.674;2023-04-15T04:36:58;9.30;99.90
35692;DHT22;26978;44.830;-0.674;2023-04-15T04:39:24;9.20;99.90
35692;DHT22;26978;44.830;-0.674;2023-04-15T04:41:49;9.20;99.90
35692;DHT22;26978;44.830;-0.674;2023-04-15T04:44:17;9.20;99.90
35692;DHT22;26978;44.830;-0.674;2023-04-15T04:46:42;9.10;99.90
35692;DHT22;26978;44.830;-0.674;2023-04-15T04:49:08;9.00;99.90
35692;DHT22;26978;44.830;-0.674;2023-04-15T04:51:34;9.00;99.90
35692;DHT22;26978;44.830;-0.674;2023-04-15T04:54:00;8.90;99.90
35692;DHT22;26978;44.830;-0.674;2023-04-15T04:56:26;8.90;99.90
35692;DHT22;26978;44.830;-0.674;2023-04-15T04:58:51;8.80;99.90
35692;DHT22;26978;44.830;-0.674;2023-04-15T05:01:17;8.80;99.90
35692;DHT22;26978;44.830;-0.674;2023-04-15T05:03:43;8.80;99.90
35692;DHT22;26978;44.830;-0.674;2023-04-15T05:06:08;8.80;99.90
35692;DHT22;26978;44.830;-0.674;2023-04-15T05:08:35;8.80;99.90
35692;DHT22;26978;44.830;-0.674;2023-04-15T05:11:01;8.70;99.90
35692;DHT22;26978;44.830;-0.674;2023-04-15T05:13:27;8.70;99.90
35692;DHT22;26978;44.830;-0.674;2023-04-15T05:15:52;8.60;99.90
35692;DHT22;26978;44.830;-0.674;2023-04-15T05:18:18;8.70;99.90
35692;DHT22;26978;44.830;-0.674;2023-04-15T05:20:44;8.70;99.90
35692;DHT22;26978;44.830;-0.674;2023-04-15T05:23:10;8.70;99.90
35692;DHT22;26978;44.830;-0.674;2023-04-15T05:25:35;8.60;99.90
35692;DHT22;26978;44.830;-0.674;2023-04-15T05:28:01;8.70;99.90
35692;DHT22;26978;44.830;-0.674;2023-04-15T05:30:26;8.70;99.90
35692;DHT22;26978;44.830;-0.674;2023-04-15T05:32:52;8.70;99.90
35692;DHT22;26978;44.830;-0.674;2023-04-15T05:35:18;8.60;99.90
35692;DHT22;26978;44.830;-0.674;2023-04-15T05:37:44;8.60;99.90
35692;DHT22;26978;44.830;-0.674;2023-04-15T05:40:10;8.50;99.90
35692;DHT22;26978;44.830;-0.674;2023-04-15T05:42:36;8.50;99.90
35692;DHT22;26978;44.830;-0.674;2023-04-15T05:45:02;8.60;99.90
35692;DHT22;26978;44.830;-0.674;2023-04-15T05:47:30;8.60;99.90
35692;DHT22;26978;44.830;-0.674;2023-04-15T05:49:56;8.60;99.90
35692;DHT22;26978;44.830;-0.674;2023-04-15T05:52:23;8.60;99.90
35692;DHT22;26978;44.830;-0.674;2023-04-15T05:54:49;8.60;99.90
35692;DHT22;26978;44.830;-0.674;2023-04-15T05:57:15;8.60;99.90
35692;DHT22;26978;44.830;-0.674;2023-04-15T05:59:40;8.70;99.90
35692;DHT22;26978;44.830;-0.674;2023-04-15T06:02:08;8.70;99.90
35692;DHT22;26978;44.830;-0.674;2023-04-15T06:04:34;8.70;99.90
35692;DHT22;26978;44.830;-0.674;2023-04-15T06:06:59;8.70;99.90
35692;DHT22;26978;44.830;-0.674;2023-04-15T06:09:25;8.70;99.90
35692;DHT22;26978;44.830;-0.674;2023-04-15T06:11:51;8.80;99.90
35692;DHT22;26978;44.830;-0.674;2023-04-15T06:14:17;8.80;99.90
35692;DHT22;26978;44.830;-0.674;2023-04-15T06:16:43;8.90;99.90
35692;DHT22;26978;44.830;-0.674;2023-04-15T06:19:08;8.90;99.90
35692;DHT22;26978;44.830;-0.674;2023-04-15T06:21:34;9.00;99.90
35692;DHT22;26978;44.830;-0.674;2023-04-15T06:24:00;9.00;99.90
35692;DHT22;26978;44.830;-0.674;2023-04-15T06:26:26;9.20;99.90
35692;DHT22;26978;44.830;-0.674;2023-04-15T06:28:52;9.40;99.90
35692;DHT22;26978;44.830;-0.674;2023-04-15T06:31:18;9.50;99.90
35692;DHT22;26978;44.830;-0.674;2023-04-15T06:33:44;9.60;99.90
35692;DHT22;26978;44.830;-0.674;2023-04-15T06:36:09;9.60;99.90
35692;DHT22;26978;44.830;-0.674;2023-04-15T06:38:35;9.70;99.90
35692;DHT22;26978;44.830;-0.674;2023-04-15T06:41:02;9.60;99.90
35692;DHT22;26978;44.830;-0.674;2023-04-15T06:43:28;9.60;99.90
35692;DHT22;26978;44.830;-0.674;2023-04-15T06:45:54;9.60;99.90
35692;DHT22;26978;44.830;-0.674;2023-04-15T06:48:21;9.60;99.90
35692;DHT22;26978;44.830;-0.674;2023-04-15T06:50:47;9.60;99.90
35692;DHT22;26978;44.830;-0.674;2023-04-15T06:53:13;9.70;99.90
35692;DHT22;26978;44.830;-0.674;2023-04-15T06:55:39;9.70;99.90
35692;DHT22;26978;44.830;-0.674;2023-04-15T06:58:06;9.80;99.90
35692;DHT22;26978;44.830;-0.674;2023-04-15T07:00:32;9.90;99.90
35692;DHT22;26978;44.830;-0.674;2023-04-15T07:03:01;9.90;99.90
35692;DHT22;26978;44.830;-0.674;2023-04-15T07:05:28;10.00;99.90
35692;DHT22;26978;44.830;-0.674;2023-04-15T07:07:54;10.00;99.90
35692;DHT22;26978;44.830;-0.674;2023-04-15T07:10:20;10.10;99.90
35692;DHT22;26978;44.830;-0.674;2023-04-15T07:12:47;10.20;99.90
35692;DHT22;26978;44.830;-0.674;2023-04-15T07:15:13;10.30;99.90
35692;DHT22;26978;44.830;-0.674;2023-04-15T07:17:40;10.30;99.90
35692;DHT22;26978;44.830;-0.674;2023-04-15T07:20:06;10.30;99.90
35692;DHT22;26978;44.830;-0.674;2023-04-15T07:22:32;10.40;99.90
35692;DHT22;26978;44.830;-0.674;2023-04-15T07:24:58;10.50;99.90
35692;DHT22;26978;44.830;-0.674;2023-04-15T07:27:24;10.50;99.90
35692;DHT22;26978;44.830;-0.674;2023-04-15T07:29:50;10.60;99.90
35692;DHT22;26978;44.830;-0.674;2023-04-15T07:32:16;10.60;99.90
35692;DHT22;26978;44.830;-0.674;2023-04-15T07:34:42;10.50;99.90
35692;DHT22;26978;44.830;-0.674;2023-04-15T07:37:08;10.60;99.90
35692;DHT22;26978;44.830;-0.674;2023-04-15T07:39:34;10.70;99.90
35692;DHT22;26978;44.830;-0.674;2023-04-15T07:42:00;10.90;99.90
35692;DHT22;26978;44.830;-0.674;2023-04-15T07:44:26;11.10;99.90
35692;DHT22;26978;44.830;-0.674;2023-04-15T07:46:52;11.10;99.90
35692;DHT22;26978;44.830;-0.674;2023-04-15T07:49:18;10.90;99.90
35692;DHT22;26978;44.830;-0.674;2023-04-15T07:51:45;10.90;99.90
35692;DHT22;26978;44.830;-0.674;2023-04-15T07:54:11;10.90;99.90
35692;DHT22;26978;44.830;-0.674;2023-04-15T07:56:37;11.10;99.90
35692;DHT22;26978;44.830;-0.674;2023-04-15T07:59:02;11.00;99.90
35692;DHT22;26978;44.830;-0.674;2023-04-15T08:01:29;11.00;99.90
35692;DHT22;26978;44.830;-0.674;2023-04-15T08:03:56;11.10;99.90
35692;DHT22;26978;44.830;-0.674;2023-04-15T08:06:22;11.00;99.90
35692;DHT22;26978;44.830;-0.674;2023-04-15T08:08:47;11.00;99.90
35692;DHT22;26978;44.830;-0.674;2023-04-15T08:11:13;11.00;99.90
35692;DHT22;26978;44.830;-0.674;2023-04-15T08:13:39;11.00;99.90
35692;DHT22;26978;44.830;-0.674;2023-04-15T08:16:15;10.90;99.90
35692;DHT22;26978;44.830;-0.674;2023-04-15T08:18:41;11.00;99.90
35692;DHT22;26978;44.830;-0.674;2023-04-15T08:21:07;10.90;99.90
35692;DHT22;26978;44.830;-0.674;2023-04-15T08:23:33;11.00;99.90
35692;DHT22;26978;44.830;-0.674;2023-04-15T08:25:59;11.20;99.90
35692;DHT22;26978;44.830;-0.674;2023-04-15T08:28:25;11.30;99.90
35692;DHT22;26978;44.830;-0.674;2023-04-15T08:30:51;11.40;99.90
35692;DHT22;26978;44.830;-0.674;2023-04-15T08:33:17;11.40;99.90
35692;DHT22;26978;44.830;-0.674;2023-04-15T08:35:43;11.40;99.90
35692;DHT22;26978;44.830;-0.674;2023-04-15T08:38:09;11.40;99.90
35692;DHT22;26978;44.830;-0.674;2023-04-15T08:40:42;11.50;99.90
35692;DHT22;26978;44.830;-0.674;2023-04-15T08:43:11;11.70;99.90
35692;DHT22;26978;44.830;-0.674;2023-04-15T08:45:38;11.90;99.90
35692;DHT22;26978;44.830;-0.674;2023-04-15T08:48:04;11.90;99.90
35692;DHT22;26978;44.830;-0.674;2023-04-15T08:50:31;12.00;99.90
35692;DHT22;26978;44.830;-0.674;2023-04-15T08:52:58;12.20;99.90
35692;DHT22;26978;44.830;-0.674;2023-04-15T08:55:28;12.30;99.90
35692;DHT22;26978;44.830;-0.674;2023-04-15T08:57:55;12.50;99.90
35692;DHT22;26978;44.830;-0.674;2023-04-15T09:00:21;12.40;99.90
35692;DHT22;26978;44.830;-0.674;2023-04-15T09:02:47;12.30;99.90
35692;DHT22;26978;44.830;-0.674;2023-04-15T09:05:13;12.40;99.90
35692;DHT22;26978;44.830;-0.674;2023-04-15T09:07:39;12.40;99.90
35692;DHT22;26978;44.830;-0.674;2023-04-15T09:10:05;12.10;99.90
35692;DHT22;26978;44.830;-0.674;2023-04-15T09:12:36;12.10;99.90
35692;DHT22;26978;44.830;-0.674;2023-04-15T09:15:03;12.10;99.90
35692;DHT22;26978;44.830;-0.674;2023-04-15T09:17:32;12.30;99.90
35692;DHT22;26978;44.830;-0.674;2023-04-15T09:20:14;12.80;99.90
35692;DHT22;26978;44.830;-0.674;2023-04-15T09:22:42;12.90;99.90
35692;DHT22;26978;44.830;-0.674;2023-04-15T09:27:58;12.60;99.90
35692;DHT22;26978;44.830;-0.674;2023-04-15T09:30:24;12.50;99.90
35692;DHT22;26978;44.830;-0.674;2023-04-15T09:32:54;12.50;99.90
35692;DHT22;26978;44.830;-0.674;2023-04-15T09:35:20;12.60;99.90
35692;DHT22;26978;44.830;-0.674;2023-04-15T09:37:47;12.60;99.90
35692;DHT22;26978;44.830;-0.674;2023-04-15T09:40:13;12.80;99.90
35692;DHT22;26978;44.830;-0.674;2023-04-15T09:42:54;13.10;99.90
35692;DHT22;26978;44.830;-0.674;2023-04-15T09:45:20;13.30;99.90
35692;DHT22;26978;44.830;-0.674;2023-04-15T09:47:46;13.40;99.90
35692;DHT22;26978;44.830;-0.674;2023-04-15T09:50:12;13.40;99.90
35692;DHT22;26978;44.830;-0.674;2023-04-15T09:52:43;12.80;99.90
35692;DHT22;26978;44.830;-0.674;2023-04-15T09:55:09;12.40;99.90
35692;DHT22;26978;44.830;-0.674;2023-04-15T09:57:36;12.70;99.90
35692;DHT22;26978;44.830;-0.674;2023-04-15T10:00:06;13.00;99.90
35692;DHT22;26978;44.830;-0.674;2023-04-15T10:02:34;13.60;99.90
35692;DHT22;26978;44.830;-0.674;2023-04-15T10:05:00;13.80;99.90
35692;DHT22;26978;44.830;-0.674;2023-04-15T10:07:26;13.60;99.90
35692;DHT22;26978;44.830;-0.674;2023-04-15T10:09:52;13.30;99.90
35692;DHT22;26978;44.830;-0.674;2023-04-15T10:12:18;13.50;99.90
35692;DHT22;26978;44.830;-0.674;2023-04-15T10:14:51;13.80;99.90
35692;DHT22;26978;44.830;-0.674;2023-04-15T10:17:21;13.80;99.90
35692;DHT22;26978;44.830;-0.674;2023-04-15T10:19:47;13.60;99.90
35692;DHT22;26978;44.830;-0.674;2023-04-15T10:22:14;13.20;99.90
35692;DHT22;26978;44.830;-0.674;2023-04-15T10:24:39;13.20;99.90
35692;DHT22;26978;44.830;-0.674;2023-04-15T10:27:06;13.50;99.90
35692;DHT22;26978;44.830;-0.674;2023-04-15T10:29:32;13.80;99.90
35692;DHT22;26978;44.830;-0.674;2023-04-15T10:31:58;13.70;99.90
35692;DHT22;26978;44.830;-0.674;2023-04-15T10:34:25;13.80;99.90
35692;DHT22;26978;44.830;-0.674;2023-04-15T10:36:54;13.90;99.90
35692;DHT22;26978;44.830;-0.674;2023-04-15T10:42:10;13.60;99.90
35692;DHT22;26978;44.830;-0.674;2023-04-15T10:44:44;13.60;99.90
35692;DHT22;26978;44.830;-0.674;2023-04-15T10:47:19;13.70;99.90
35692;DHT22;26978;44.830;-0.674;2023-04-15T10:49:55;13.90;99.90
35692;DHT22;26978;44.830;-0.674;2023-04-15T10:52:23;14.00;99.90
35692;DHT22;26978;44.830;-0.674;2023-04-15T10:57:38;14.00;99.90
35692;DHT22;26978;44.830;-0.674;2023-04-15T11:05:05;14.10;99.90
35692;DHT22;26978;44.830;-0.674;2023-04-15T11:12:39;14.10;99.90
35692;DHT22;26978;44.830;-0.674;2023-04-15T11:21:02;14.60;99.90
35692;DHT22;26978;44.830;-0.674;2023-04-15T11:23:38;14.50;99.90
35692;DHT22;26978;44.830;-0.674;2023-04-15T11:26:06;14.30;99.90
35692;DHT22;26978;44.830;-0.674;2023-04-15T11:28:34;14.50;99.90
35692;DHT22;26978;44.830;-0.674;2023-04-15T11:31:14;14.50;99.90
35692;DHT22;26978;44.830;-0.674;2023-04-15T11:33:54;14.80;99.90
35692;DHT22;26978;44.830;-0.674;2023-04-15T11:36:22;14.80;99.90
35692;DHT22;26978;44.830;-0.674;2023-04-15T11:38:48;14.40;99.90
35692;DHT22;26978;44.830;-0.674;2023-04-15T11:41:14;14.40;99.90
35692;DHT22;26978;44.830;-0.674;2023-04-15T11:43:41;14.70;99.90
35692;DHT22;26978;44.830;-0.674;2023-04-15T11:46:07;14.70;99.30
35692;DHT22;26978;44.830;-0.674;2023-04-15T11:48:34;14.80;99.90
35692;DHT22;26978;44.830;-0.674;2023-04-15T11:51:06;14.70;99.90
35692;DHT22;26978;44.830;-0.674;2023-04-15T11:56:10;14.80;99.90
35692;DHT22;26978;44.830;-0.674;2023-04-15T11:58:37;15.10;99.90
35692;DHT22;26978;44.830;-0.674;2023-04-15T12:01:03;14.60;99.90
35692;DHT22;26978;44.830;-0.674;2023-04-15T12:06:19;14.70;99.90
35692;DHT22;26978;44.830;-0.674;2023-04-15T12:16:36;14.70;99.90
35692;DHT22;26978;44.830;-0.674;2023-04-15T12:19:14;14.90;99.70
35692;DHT22;26978;44.830;-0.674;2023-04-15T12:21:44;15.20;99.80
35692;DHT22;26978;44.830;-0.674;2023-04-15T12:24:11;15.30;99.00
35692;DHT22;26978;44.830;-0.674;2023-04-15T12:26:44;15.00;99.90
35692;DHT22;26978;44.830;-0.674;2023-04-15T12:29:12;14.90;99.40
35692;DHT22;26978;44.830;-0.674;2023-04-15T12:31:57;15.00;99.60
35692;DHT22;26978;44.830;-0.674;2023-04-15T12:34:28;14.90;99.90
35692;DHT22;26978;44.830;-0.674;2023-04-15T12:36:55;15.30;99.90
35692;DHT22;26978;44.830;-0.674;2023-04-15T12:39:26;15.20;99.90
35692;DHT22;26978;44.830;-0.674;2023-04-15T12:41:53;15.20;99.90
35692;DHT22;26978;44.830;-0.674;2023-04-15T12:44:18;15.40;99.90
35692;DHT22;26978;44.830;-0.674;2023-04-15T12:46:44;15.60;99.90
35692;DHT22;26978;44.830;-0.674;2023-04-15T12:49:10;15.80;98.60
35692;DHT22;26978;44.830;-0.674;2023-04-15T12:51:36;15.50;98.20
35692;DHT22;26978;44.830;-0.674;2023-04-15T12:54:02;15.70;98.80
35692;DHT22;26978;44.830;-0.674;2023-04-15T12:56:27;15.70;98.50
35692;DHT22;26978;44.830;-0.674;2023-04-15T12:58:53;15.80;99.10
35692;DHT22;26978;44.830;-0.674;2023-04-15T13:01:19;15.50;98.20
35692;DHT22;26978;44.830;-0.674;2023-04-15T13:03:45;15.70;98.20
35692;DHT22;26978;44.830;-0.674;2023-04-15T13:06:11;15.30;99.10
35692;DHT22;26978;44.830;-0.674;2023-04-15T13:08:37;15.60;99.50
35692;DHT22;26978;44.830;-0.674;2023-04-15T13:11:03;15.60;99.90
35692;DHT22;26978;44.830;-0.674;2023-04-15T13:13:28;16.50;99.30
35692;DHT22;26978;44.830;-0.674;2023-04-15T13:15:56;16.20;98.90
35692;DHT22;26978;44.830;-0.674;2023-04-15T13:18:23;15.30;98.90
35692;DHT22;26978;44.830;-0.674;2023-04-15T13:20:50;15.10;99.90
35692;DHT22;26978;44.830;-0.674;2023-04-15T13:23:15;15.30;99.90
35692;DHT22;26978;44.830;-0.674;2023-04-15T13:25:41;15.70;99.90
35692;DHT22;26978;44.830;-0.674;2023-04-15T13:28:09;16.20;99.50
35692;DHT22;26978;44.830;-0.674;2023-04-15T13:30:37;16.10;96.80
35692;DHT22;26978;44.830;-0.674;2023-04-15T13:33:03;16.10;98.20
35692;DHT22;26978;44.830;-0.674;2023-04-15T13:35:29;16.50;96.20
35692;DHT22;26978;44.830;-0.674;2023-04-15T13:37:54;15.90;97.30
35692;DHT22;26978;44.830;-0.674;2023-04-15T13:40:20;15.80;98.20
35692;DHT22;26978;44.830;-0.674;2023-04-15T13:42:46;16.60;94.90
35692;DHT22;26978;44.830;-0.674;2023-04-15T13:45:12;17.10;94.90
35692;DHT22;26978;44.830;-0.674;2023-04-15T13:47:37;17.50;96.10
35692;DHT22;26978;44.830;-0.674;2023-04-15T13:50:04;16.60;93.00
35692;DHT22;26978;44.830;-0.674;2023-04-15T13:52:30;16.20;95.30
35692;DHT22;26978;44.830;-0.674;2023-04-15T13:54:55;16.60;94.90
35692;DHT22;26978;44.830;-0.674;2023-04-15T13:57:21;16.90;92.00
35692;DHT22;26978;44.830;-0.674;2023-04-15T13:59:47;17.10;90.30
35692;DHT22;26978;44.830;-0.674;2023-04-15T14:02:12;17.90;92.40
35692;DHT22;26978;44.830;-0.674;2023-04-15T14:04:38;18.10;90.30
35692;DHT22;26978;44.830;-0.674;2023-04-15T14:07:04;17.10;89.40
35692;DHT22;26978;44.830;-0.674;2023-04-15T14:09:30;17.10;86.20
35692;DHT22;26978;44.830;-0.674;2023-04-15T14:11:55;17.10;87.80
35692;DHT22;26978;44.830;-0.674;2023-04-15T14:14:23;17.50;89.00
35692;DHT22;26978;44.830;-0.674;2023-04-15T14:16:48;16.70;90.30
35692;DHT22;26978;44.830;-0.674;2023-04-15T14:19:14;17.10;91.30
35692;DHT22;26978;44.830;-0.674;2023-04-15T14:21:40;17.70;92.40
35692;DHT22;26978;44.830;-0.674;2023-04-15T14:24:06;18.60;92.20
35692;DHT22;26978;44.830;-0.674;2023-04-15T14:26:31;18.90;88.60
35692;DHT22;26978;44.830;-0.674;2023-04-15T14:28:57;18.10;89.50
35692;DHT22;26978;44.830;-0.674;2023-04-15T14:31:23;16.70;91.80
35692;DHT22;26978;44.830;-0.674;2023-04-15T14:33:48;15.90;95.70
35692;DHT22;26978;44.830;-0.674;2023-04-15T14:36:14;16.40;94.30
35692;DHT22;26978;44.830;-0.674;2023-04-15T14:38:39;17.90;92.60
35692;DHT22;26978;44.830;-0.674;2023-04-15T14:41:06;18.70;90.30
35692;DHT22;26978;44.830;-0.674;2023-04-15T14:43:33;17.60;87.60
35692;DHT22;26978;44.830;-0.674;2023-04-15T14:45:58;17.20;90.40
35692;DHT22;26978;44.830;-0.674;2023-04-15T14:48:24;18.30;90.60
35692;DHT22;26978;44.830;-0.674;2023-04-15T14:50:50;18.60;86.50
35692;DHT22;26978;44.830;-0.674;2023-04-15T14:53:16;16.50;90.20
35692;DHT22;26978;44.830;-0.674;2023-04-15T14:55:41;17.30;89.10
35692;DHT22;26978;44.830;-0.674;2023-04-15T14:58:08;18.60;85.70
35692;DHT22;26978;44.830;-0.674;2023-04-15T15:00:34;19.40;86.90
35692;DHT22;26978;44.830;-0.674;2023-04-15T15:03:00;20.10;80.30
35692;DHT22;26978;44.830;-0.674;2023-04-15T15:05:26;20.10;81.00
35692;DHT22;26978;44.830;-0.674;2023-04-15T15:07:52;19.40;74.80
35692;DHT22;26978;44.830;-0.674;2023-04-15T15:10:17;18.40;81.20
35692;DHT22;26978;44.830;-0.674;2023-04-15T15:12:43;17.90;85.20
35692;DHT22;26978;44.830;-0.674;2023-04-15T15:15:09;18.40;85.40
35692;DHT22;26978;44.830;-0.674;2023-04-15T15:17:34;18.50;85.80
35692;DHT22;26978;44.830;-0.674;2023-04-15T15:20:00;18.90;85.10
35692;DHT22;26978;44.830;-0.674;2023-04-15T15:22:27;19.20;83.60
35692;DHT22;26978;44.830;-0.674;2023-04-15T15:24:53;19.40;78.40
35692;DHT22;26978;44.830;-0.674;2023-04-15T15:27:19;19.30;81.00
35692;DHT22;26978;44.830;-0.674;2023-04-15T15:29:45;18.50;82.20
35692;DHT22;26978;44.830;-0.674;2023-04-15T15:32:11;18.80;81.80
35692;DHT22;26978;44.830;-0.674;2023-04-15T15:34:37;19.50;81.40
35692;DHT22;26978;44.830;-0.674;2023-04-15T15:37:02;19.20;83.60
35692;DHT22;26978;44.830;-0.674;2023-04-15T15:39:28;19.80;79.70
35692;DHT22;26978;44.830;-0.674;2023-04-15T15:41:54;19.30;79.20
35692;DHT22;26978;44.830;-0.674;2023-04-15T15:44:19;18.70;78.40
35692;DHT22;26978;44.830;-0.674;2023-04-15T15:46:45;17.90;83.10
35692;DHT22;26978;44.830;-0.674;2023-04-15T15:49:11;18.70;82.00
35692;DHT22;26978;44.830;-0.674;2023-04-15T15:51:37;18.60;83.90
35692;DHT22;26978;44.830;-0.674;2023-04-15T15:54:03;18.70;80.50